createdAt,value
2019-05-13T00:02:46.434Z,15.9
2019-05-13T00:12:45.649Z,15.8
2019-05-13T00:22:45.098Z,15.4
2019-05-13T00:32:44.680Z,15.5
2019-05-13T00:42:44.055Z,15.6
2019-05-13T00:52:44.531Z,15.6
2019-05-13T01:02:44.322Z,15.4
2019-05-13T01:12:40.939Z,15.4
2019-05-13T01:22:40.155Z,15.4
2019-05-13T01:32:39.373Z,15.3
2019-05-13T01:42:38.587Z,15.3
2019-05-13T01:52:37.800Z,15.2
2019-05-13T02:02:37.008Z,15.1
2019-05-13T02:12:36.229Z,15
2019-05-13T02:22:35.495Z,15
2019-05-13T02:32:34.656Z,14.9
2019-05-13T02:42:33.863Z,14.9
2019-05-13T02:52:33.546Z,14.8
2019-05-13T03:02:32.825Z,14.7
2019-05-13T03:12:32.298Z,14.7
2019-05-13T03:22:32.549Z,14.8
2019-05-13T03:32:37.476Z,14
2019-05-13T03:42:29.151Z,13.7
2019-05-13T03:52:28.369Z,13.5
2019-05-13T04:02:27.580Z,13.6
2019-05-13T04:12:28.464Z,13.6
2019-05-13T04:22:26.006Z,13.8
2019-05-13T04:32:28.620Z,14.3
2019-05-13T04:42:24.434Z,14.4
2019-05-13T04:52:23.649Z,14.7
2019-05-13T05:02:29.889Z,14.9
2019-05-13T05:12:23.033Z,15.3
2019-05-13T05:22:22.129Z,15.2
2019-05-13T05:32:21.392Z,14.8
2019-05-13T05:42:21.689Z,14.8
2019-05-13T05:52:20.990Z,15
2019-05-13T06:02:18.155Z,15.5
2019-05-13T06:12:17.416Z,15.3
2019-05-13T06:22:16.585Z,15.2
2019-05-13T06:32:22.197Z,15.1
2019-05-13T06:42:15.013Z,14.9
2019-05-13T06:52:14.220Z,15.2
2019-05-13T07:02:13.436Z,15.6
2019-05-13T07:12:12.654Z,16.2
2019-05-13T07:22:11.877Z,16.3
2019-05-13T07:32:11.945Z,16.3
2019-05-13T07:42:12.274Z,16.7
2019-05-13T07:52:11.661Z,16.2
2019-05-13T08:02:08.725Z,15.9
2019-05-13T08:12:10.761Z,15.9
2019-05-13T08:22:07.197Z,15.9
2019-05-13T08:32:06.363Z,15.7
2019-05-13T08:42:14.935Z,15.4
2019-05-13T08:52:04.786Z,15.3
2019-05-13T09:02:04.001Z,15.3
2019-05-13T09:12:03.214Z,15.1
2019-05-13T09:22:03.339Z,15.4
2019-05-13T09:33:02.878Z,15.7
2019-05-13T09:43:02.596Z,15.8
2019-05-13T09:53:02.670Z,15.9
2019-05-13T10:03:02.116Z,16.1
2019-05-13T10:13:08.759Z,16.1
2019-05-13T10:23:01.066Z,16.1
2019-05-13T10:32:59.507Z,16.4
2019-05-13T10:42:57.429Z,16.6
2019-05-13T10:52:56.594Z,17.1
2019-05-13T11:02:55.805Z,17.1
2019-05-13T11:12:55.074Z,17.1
2019-05-13T11:22:54.238Z,16.9
2019-05-13T11:32:53.452Z,17.1
2019-05-13T11:42:52.837Z,17.1
2019-05-13T11:52:52.545Z,17.5
2019-05-13T12:02:54.534Z,17.4
2019-05-13T12:13:53.276Z,17.2
2019-05-13T12:23:52.986Z,17.2
2019-05-13T12:33:52.580Z,17.3
2019-05-13T12:43:53.816Z,17.2
2019-05-13T12:54:53.216Z,17.3
2019-05-13T13:05:08.374Z,17.1
2019-05-13T13:15:53.257Z,17.1
2019-05-13T13:26:56.589Z,17.3
2019-05-13T13:38:10.130Z,17.2
2019-05-13T13:48:12.878Z,17.1
2019-05-13T13:58:08.557Z,17.1
2019-05-13T14:08:07.770Z,17.1
2019-05-13T14:18:06.981Z,16.9
2019-05-13T14:28:06.244Z,16.7
2019-05-13T14:38:05.410Z,16.5
2019-05-13T14:48:04.612Z,16.4
2019-05-13T14:58:03.836Z,16.3
2019-05-13T15:08:03.043Z,16.2
2019-05-13T15:18:02.250Z,16.2
2019-05-13T15:28:02.880Z,16.1
2019-05-13T15:38:01.262Z,16
2019-05-13T15:48:02.013Z,15.9
2019-05-13T15:57:59.103Z,15.9
2019-05-13T16:07:58.317Z,16
2019-05-13T16:17:57.534Z,16.1
2019-05-13T16:27:56.753Z,16.1
2019-05-13T16:37:56.008Z,16.1
2019-05-13T16:47:57.462Z,16.1
2019-05-13T16:57:54.448Z,16.1
2019-05-13T17:07:53.605Z,16.1
2019-05-13T17:17:52.822Z,15.9
2019-05-13T17:27:52.041Z,15.9
2019-05-13T17:37:51.341Z,15.8
2019-05-13T17:47:51.991Z,15.8
2019-05-13T17:57:49.695Z,15.6
2019-05-13T18:07:51.170Z,15.9
2019-05-13T18:17:48.109Z,16.1
2019-05-13T18:27:47.380Z,16.1
2019-05-13T18:37:46.538Z,16.1
2019-05-13T18:47:45.755Z,16
2019-05-13T18:57:44.976Z,16.1
2019-05-13T19:07:44.210Z,16.1
2019-05-13T19:17:43.407Z,16.2
2019-05-13T19:27:42.613Z,16.2
2019-05-13T19:37:42.421Z,16.1
2019-05-13T19:47:41.751Z,16.1
2019-05-13T19:57:42.402Z,16.1
2019-05-13T20:07:41.672Z,15.9
2019-05-13T20:17:38.694Z,15.9
2019-05-13T20:27:37.909Z,15.9
2019-05-13T20:37:37.117Z,15.9
2019-05-13T20:47:36.329Z,15.9
2019-05-13T20:57:35.556Z,15.7
2019-05-13T21:13:02.213Z,15.4
2019-05-13T21:23:02.223Z,15.3
2019-05-13T21:33:02.193Z,15.3
2019-05-13T21:42:59.860Z,15.1
2019-05-13T21:52:59.074Z,14.9
2019-05-13T22:02:58.290Z,14.8
2019-05-13T22:12:57.543Z,14.6
2019-05-13T22:22:56.835Z,14.6
2019-05-13T22:32:56.133Z,14.6
2019-05-13T22:42:56.580Z,14.7
2019-05-13T22:52:54.738Z,14.8
2019-05-13T23:02:54.036Z,14.9
2019-05-13T23:12:53.243Z,14.9
2019-05-13T23:22:52.462Z,14.9
2019-05-13T23:32:51.889Z,14.9
2019-05-13T23:42:51.744Z,14.8
2019-05-13T23:52:51.128Z,14.7
